Time;durP1;ratioP1;P1;durP2;ratioP2;P2;SDS_P1;SDS_P2;PMS_P1;PMS_P2;Temp;Humidity;BMP_temperature;BMP_pressure;BME280_temperature;BME280_humidity;BME280_pressure;Samples;Min_cycle;Max_cycle;Signal;HPM_P1;HPM_P2
2022/09/11 00:02:02;;;;;;;2.27;1.30;;;;;;;;;;5071754;28;20440;-75
2022/09/11 00:04:32;;;;;;;1.63;1.43;;;;;;;;;;5071513;28;20466;-75
2022/09/11 00:06:58;;;;;;;1.70;1.60;;;;;;;;;;5072983;28;20508;-75
2022/09/11 00:09:25;;;;;;;2.43;1.70;;;;;;;;;;5066860;28;20476;-75
2022/09/11 00:11:52;;;;;;;7.50;2.00;;;;;;;;;;5052877;28;20437;-75
2022/09/11 00:14:18;;;;;;;3.40;1.60;;;;;;;;;;5051614;28;20425;-75
2022/09/11 00:16:45;;;;;;;4.23;1.90;;;;;;;;;;5051603;28;20435;-74
2022/09/11 00:19:14;;;;;;;1.70;1.60;;;;;;;;;;5052660;28;20469;-74
2022/09/11 00:21:41;;;;;;;4.40;1.40;;;;;;;;;;5050928;28;20438;-74
2022/09/11 00:24:09;;;;;;;2.10;1.37;;;;;;;;;;5051304;28;20468;-74
2022/09/11 00:26:36;;;;;;;1.57;1.47;;;;;;;;;;5052364;28;20417;-74
2022/09/11 00:29:03;;;;;;;1.47;1.37;;;;;;;;;;5067538;28;20437;-75
2022/09/11 00:31:31;;;;;;;1.70;1.53;;;;;;;;;;5050859;28;20507;-75
2022/09/11 00:33:58;;;;;;;1.70;1.43;;;;;;;;;;5050804;28;20992;-75
2022/09/11 00:36:28;;;;;;;1.47;1.10;;;;;;;;;;5050658;28;20945;-75
2022/09/11 00:38:55;;;;;;;2.60;1.70;;;;;;;;;;5052228;28;20417;-75
2022/09/11 00:41:24;;;;;;;3.70;1.80;;;;;;;;;;5050855;28;20548;-75
2022/09/11 00:44:10;;;;;;;1.50;1.37;;;;;;;;;;5050967;28;20425;-75
2022/09/11 00:46:57;;;;;;;2.63;1.40;;;;;;;;;;5051600;28;20468;-75
2022/09/11 00:49:27;;;;;;;3.37;1.90;;;;;;;;;;5050895;28;20410;-75
2022/09/11 00:51:56;;;;;;;1.30;1.20;;;;;;;;;;5050652;28;20542;-75
2022/09/11 00:54:25;;;;;;;2.33;1.80;;;;;;;;;;5051080;28;20941;-76
2022/09/11 00:56:53;;;;;;;2.33;1.40;;;;;;;;;;5064069;28;20435;-76
2022/09/11 00:59:24;;;;;;;1.60;1.50;;;;;;;;;;5090980;28;20424;-76
2022/09/11 01:01:50;;;;;;;2.40;1.53;;;;;;;;;;5090765;28;20554;-76
2022/09/11 01:04:17;;;;;;;1.50;1.40;;;;;;;;;;5090475;28;20465;-76
2022/09/11 01:06:45;;;;;;;1.37;1.27;;;;;;;;;;5054559;28;20439;-76
2022/09/11 01:09:12;;;;;;;1.70;1.60;;;;;;;;;;5071889;28;20450;-76
2022/09/11 01:11:46;;;;;;;1.80;1.53;;;;;;;;;;5053799;28;20471;-76
2022/09/11 01:14:25;;;;;;;1.93;1.83;;;;;;;;;;5070430;28;20434;-76
2022/09/11 01:17:24;;;;;;;2.40;2.20;;;;;;;;;;5070410;28;20429;-76
2022/09/11 01:19:50;;;;;;;3.33;3.13;;;;;;;;;;5067662;28;20991;-76
2022/09/11 01:22:20;;;;;;;2.77;2.47;;;;;;;;;;5070747;28;20425;-76
2022/09/11 01:24:53;;;;;;;3.57;2.10;;;;;;;;;;5070942;28;20524;-76
2022/09/11 01:27:39;;;;;;;2.70;2.37;;;;;;;;;;5059020;28;20435;-76
2022/09/11 01:30:07;;;;;;;2.43;2.00;;;;;;;;;;5074040;28;20833;-76
2022/09/11 01:32:58;;;;;;;3.27;3.03;;;;;;;;;;5070690;28;20397;-76
2022/09/11 01:35:30;;;;;;;2.83;2.03;;;;;;;;;;5070398;28;20503;-76
2022/09/11 01:38:04;;;;;;;2.43;2.03;;;;;;;;;;5070492;28;21409;-76
2022/09/11 01:40:57;;;;;;;2.07;1.93;;;;;;;;;;5070355;28;20459;-76
2022/09/11 01:43:26;;;;;;;5.80;2.40;;;;;;;;;;5052100;28;20452;-77
2022/09/11 01:45:54;;;;;;;4.00;2.30;;;;;;;;;;5070344;28;20439;-76
2022/09/11 01:48:28;;;;;;;2.40;2.20;;;;;;;;;;5071653;28;20436;-76
2022/09/11 01:50:56;;;;;;;2.77;2.57;;;;;;;;;;5074474;28;20558;-76
2022/09/11 01:53:25;;;;;;;2.80;2.47;;;;;;;;;;5058237;28;20527;-76
2022/09/11 01:55:54;;;;;;;3.73;3.17;;;;;;;;;;5057465;28;20463;-76
2022/09/11 01:58:23;;;;;;;7.93;3.07;;;;;;;;;;5075067;28;20461;-77
2022/09/11 02:00:52;;;;;;;3.50;2.87;;;;;;;;;;5073860;28;20463;-76
2022/09/11 02:03:30;;;;;;;3.23;2.97;;;;;;;;;;5090659;28;20775;-76
2022/09/11 02:06:03;;;;;;;3.67;3.40;;;;;;;;;;5075183;28;20775;-76
2022/09/11 02:08:43;;;;;;;4.43;3.80;;;;;;;;;;5064591;28;20439;-75
2022/09/11 02:11:11;;;;;;;3.50;3.27;;;;;;;;;;5090776;28;21067;-75
2022/09/11 02:13:50;;;;;;;3.80;3.50;;;;;;;;;;5073716;28;20417;-75
2022/09/11 02:16:16;;;;;;;3.97;3.67;;;;;;;;;;5057088;28;20432;-75
2022/09/11 02:18:58;;;;;;;4.37;3.97;;;;;;;;;;5057330;28;20432;-75
2022/09/11 02:21:25;;;;;;;5.27;3.80;;;;;;;;;;5080654;28;20544;-75
2022/09/11 02:23:52;;;;;;;5.40;3.20;;;;;;;;;;5083593;28;20535;-75
2022/09/11 02:26:19;;;;;;;6.13;3.80;;;;;;;;;;5073505;28;20436;-75
2022/09/11 02:28:46;;;;;;;3.60;3.40;;;;;;;;;;5057046;28;20516;-74
2022/09/11 02:31:13;;;;;;;3.83;3.37;;;;;;;;;;5073160;28;20480;-75
2022/09/11 02:33:39;;;;;;;3.83;3.53;;;;;;;;;;5056662;28;20432;-75
2022/09/11 02:36:12;;;;;;;3.43;3.07;;;;;;;;;;5057195;28;20440;-75
2022/09/11 02:38:56;;;;;;;6.70;4.10;;;;;;;;;;5062388;28;20436;-75
2022/09/11 02:41:25;;;;;;;3.83;3.53;;;;;;;;;;5093520;28;20454;-75
2022/09/11 02:44:02;;;;;;;3.70;3.40;;;;;;;;;;5093325;28;20939;-74
2022/09/11 02:46:53;;;;;;;3.90;3.60;;;;;;;;;;5090507;28;20435;-74
2022/09/11 02:49:28;;;;;;;5.47;3.70;;;;;;;;;;5059882;28;20532;-74
2022/09/11 02:52:02;;;;;;;6.10;3.13;;;;;;;;;;5069798;28;20465;-75
2022/09/11 02:54:47;;;;;;;4.70;3.77;;;;;;;;;;5057232;28;20829;-75
2022/09/11 02:57:18;;;;;;;4.83;4.00;;;;;;;;;;5081571;28;20924;-75
2022/09/11 02:59:50;;;;;;;5.13;4.00;;;;;;;;;;5077471;28;20462;-74
2022/09/11 03:02:17;;;;;;;4.90;4.50;;;;;;;;;;5076072;28;20428;-75
2022/09/11 03:04:45;;;;;;;4.70;4.30;;;;;;;;;;5093458;28;20463;-75
2022/09/11 03:07:12;;;;;;;4.70;4.00;;;;;;;;;;5066229;28;20461;-74
2022/09/11 03:09:38;;;;;;;6.20;4.00;;;;;;;;;;5093164;28;20439;-74
2022/09/11 03:12:11;;;;;;;4.27;3.80;;;;;;;;;;5078061;28;20429;-74
2022/09/11 03:14:37;;;;;;;3.67;3.37;;;;;;;;;;5055888;28;20940;-75
2022/09/11 03:17:04;;;;;;;3.37;2.90;;;;;;;;;;5086741;28;20428;-75
2022/09/11 03:19:32;;;;;;;4.90;3.97;;;;;;;;;;5092535;28;20478;-75
2022/09/11 03:21:59;;;;;;;2.50;2.30;;;;;;;;;;5075877;28;20442;-75
2022/09/11 03:24:26;;;;;;;4.40;3.23;;;;;;;;;;5084128;28;20460;-75
2022/09/11 03:26:53;;;;;;;2.73;2.53;;;;;;;;;;5072760;28;20939;-75
2022/09/11 03:29:19;;;;;;;2.50;2.30;;;;;;;;;;5072521;28;20416;-75
2022/09/11 03:31:47;;;;;;;2.97;2.77;;;;;;;;;;5072291;28;20472;-75
2022/09/11 03:34:14;;;;;;;3.03;2.83;;;;;;;;;;5089050;28;20413;-75
2022/09/11 03:36:40;;;;;;;2.63;2.43;;;;;;;;;;5055587;28;20448;-75
2022/09/11 03:39:07;;;;;;;3.80;2.73;;;;;;;;;;5055789;28;20441;-75
2022/09/11 03:41:34;;;;;;;3.83;3.17;;;;;;;;;;5088844;28;20498;-76
2022/09/11 03:44:03;;;;;;;4.00;3.70;;;;;;;;;;5072151;28;20943;-76
2022/09/11 03:46:30;;;;;;;3.23;2.93;;;;;;;;;;5071898;28;20429;-76
2022/09/11 03:48:58;;;;;;;3.03;2.80;;;;;;;;;;5055461;28;20948;-76
2022/09/11 03:51:25;;;;;;;3.90;3.60;;;;;;;;;;5055168;28;20472;-76
2022/09/11 03:53:52;;;;;;;3.97;3.43;;;;;;;;;;5072044;28;20432;-76
2022/09/11 03:56:19;;;;;;;3.33;2.73;;;;;;;;;;5055321;28;20425;-76
2022/09/11 03:58:47;;;;;;;3.50;3.20;;;;;;;;;;5071768;28;20464;-76
2022/09/11 04:01:17;;;;;;;3.57;3.27;;;;;;;;;;5071739;28;20555;-76
2022/09/11 04:03:44;;;;;;;2.93;2.73;;;;;;;;;;5088677;28;20425;-76
2022/09/11 04:06:19;;;;;;;4.10;3.23;;;;;;;;;;5077674;28;20526;-76
2022/09/11 04:08:45;;;;;;;3.37;3.17;;;;;;;;;;5109125;28;20439;-75
2022/09/11 04:11:13;;;;;;;2.90;2.70;;;;;;;;;;5091723;28;20513;-75
2022/09/11 04:13:40;;;;;;;2.90;2.40;;;;;;;;;;5091545;28;20485;-75
2022/09/11 04:16:13;;;;;;;3.67;3.10;;;;;;;;;;5091651;28;20450;-75
2022/09/11 04:18:41;;;;;;;2.60;2.40;;;;;;;;;;5109045;28;20419;-75
2022/09/11 04:21:10;;;;;;;3.07;2.53;;;;;;;;;;5094608;28;20455;-75
2022/09/11 04:23:37;;;;;;;2.70;2.50;;;;;;;;;;5094013;28;20534;-75
2022/09/11 04:26:18;;;;;;;3.07;2.87;;;;;;;;;;5091669;28;20804;-75
2022/09/11 04:28:49;;;;;;;2.23;2.03;;;;;;;;;;5091643;28;20432;-75
2022/09/11 04:31:17;;;;;;;2.57;2.37;;;;;;;;;;5091218;28;20516;-75
2022/09/11 04:33:45;;;;;;;3.07;2.87;;;;;;;;;;5091132;28;20773;-75
2022/09/11 04:36:16;;;;;;;2.70;2.50;;;;;;;;;;5091622;28;20573;-75
2022/09/11 04:38:43;;;;;;;3.37;2.10;;;;;;;;;;5103783;28;20461;-76
2022/09/11 04:41:11;;;;;;;3.43;2.43;;;;;;;;;;5071269;28;20452;-77
2022/09/11 04:43:39;;;;;;;3.63;1.87;;;;;;;;;;5054594;28;20437;-76
2022/09/11 04:46:10;;;;;;;8.43;2.40;;;;;;;;;;5070933;28;20898;-76
2022/09/11 04:48:41;;;;;;;2.70;2.50;;;;;;;;;;5054465;28;20523;-76
2022/09/11 04:51:08;;;;;;;2.77;2.33;;;;;;;;;;5070647;28;20472;-76
2022/09/11 04:53:37;;;;;;;3.20;3.00;;;;;;;;;;5070677;28;20421;-76
2022/09/11 04:56:06;;;;;;;2.90;2.70;;;;;;;;;;5054225;28;20531;-76
2022/09/11 04:58:39;;;;;;;3.87;3.20;;;;;;;;;;5070497;28;20416;-76
2022/09/11 05:01:07;;;;;;;3.63;3.30;;;;;;;;;;5070860;28;20791;-75
2022/09/11 05:03:34;;;;;;;3.20;2.97;;;;;;;;;;5050869;28;21057;-76
2022/09/11 05:06:04;;;;;;;2.60;2.40;;;;;;;;;;5057420;28;20527;-76
2022/09/11 05:08:35;;;;;;;5.53;3.70;;;;;;;;;;5074452;28;20434;-76
2022/09/11 05:11:05;;;;;;;4.00;3.70;;;;;;;;;;5090576;28;20510;-76
2022/09/11 05:13:32;;;;;;;3.50;3.20;;;;;;;;;;5090732;28;20514;-76
2022/09/11 05:16:03;;;;;;;3.90;3.60;;;;;;;;;;5090734;28;20416;-76
2022/09/11 05:18:32;;;;;;;5.80;4.37;;;;;;;;;;5074438;28;20431;-77
2022/09/11 05:21:01;;;;;;;4.13;3.73;;;;;;;;;;5090598;28;21007;-76
2022/09/11 05:23:28;;;;;;;5.90;5.50;;;;;;;;;;5073293;28;20432;-76
2022/09/11 05:25:56;;;;;;;16.40;15.20;;;;;;;;;;5070606;28;20433;-76
2022/09/11 05:28:24;;;;;;;6.33;5.83;;;;;;;;;;5071159;28;20441;-76
2022/09/11 05:30:52;;;;;;;5.03;4.63;;;;;;;;;;5079593;28;20461;-76
2022/09/11 05:33:21;;;;;;;7.37;6.77;;;;;;;;;;5081745;28;20974;-76
2022/09/11 05:36:02;;;;;;;5.73;5.33;;;;;;;;;;5070238;28;20444;-76
2022/09/11 05:38:28;;;;;;;8.37;7.57;;;;;;;;;;5070552;28;20455;-76
2022/09/11 05:40:55;;;;;;;6.23;5.80;;;;;;;;;;5070322;28;20452;-76
2022/09/11 05:43:22;;;;;;;7.50;6.33;;;;;;;;;;5088150;28;20436;-76
2022/09/11 05:45:55;;;;;;;7.00;6.40;;;;;;;;;;5062771;28;20463;-76
2022/09/11 05:48:22;;;;;;;6.47;5.97;;;;;;;;;;5070213;28;20809;-76
2022/09/11 05:50:58;;;;;;;6.97;6.37;;;;;;;;;;5053710;28;20479;-76
2022/09/11 05:53:26;;;;;;;8.60;7.80;;;;;;;;;;5070256;28;20427;-76
2022/09/11 05:55:54;;;;;;;7.40;6.80;;;;;;;;;;5069969;28;20433;-76
2022/09/11 05:58:22;;;;;;;6.90;6.30;;;;;;;;;;5070175;28;20856;-76
2022/09/11 06:00:48;;;;;;;7.10;6.50;;;;;;;;;;5070516;28;20888;-76
2022/09/11 06:03:16;;;;;;;6.13;5.63;;;;;;;;;;5070317;28;20439;-76
2022/09/11 06:05:43;;;;;;;8.07;7.27;;;;;;;;;;5053485;28;20477;-76
2022/09/11 06:08:10;;;;;;;7.30;6.70;;;;;;;;;;5069975;28;20486;-76
2022/09/11 06:10:47;;;;;;;7.47;6.77;;;;;;;;;;5053401;28;20959;-76
2022/09/11 06:13:17;;;;;;;6.90;6.37;;;;;;;;;;5062927;28;20944;-76
2022/09/11 06:15:46;;;;;;;7.03;6.13;;;;;;;;;;5080709;28;20498;-76
2022/09/11 06:18:14;;;;;;;6.67;5.93;;;;;;;;;;5070190;28;20527;-76
2022/09/11 06:20:40;;;;;;;6.43;5.93;;;;;;;;;;5069701;28;20468;-77
2022/09/11 06:23:14;;;;;;;7.53;5.83;;;;;;;;;;5082120;28;20431;-77
2022/09/11 06:25:41;;;;;;;6.47;5.90;;;;;;;;;;5084801;28;20499;-76
2022/09/11 06:28:07;;;;;;;5.57;5.10;;;;;;;;;;5082199;28;20526;-76
2022/09/11 06:30:34;;;;;;;6.03;4.50;;;;;;;;;;5054977;28;20457;-76
2022/09/11 06:33:01;;;;;;;5.20;4.80;;;;;;;;;;5069989;28;20479;-76
2022/09/11 06:35:27;;;;;;;4.43;4.13;;;;;;;;;;5071388;28;20432;-76
2022/09/11 06:37:54;;;;;;;4.13;3.77;;;;;;;;;;5053707;28;20436;-76
2022/09/11 06:40:20;;;;;;;4.13;3.83;;;;;;;;;;5070278;28;20452;-76
2022/09/11 06:42:47;;;;;;;5.27;4.50;;;;;;;;;;5073584;28;20955;-76
2022/09/11 06:45:14;;;;;;;4.67;3.40;;;;;;;;;;5056789;28;20467;-76
2022/09/11 06:47:41;;;;;;;4.60;4.20;;;;;;;;;;5075017;28;20436;-76
2022/09/11 06:50:07;;;;;;;3.50;3.30;;;;;;;;;;5081953;28;20828;-76
2022/09/11 06:52:54;;;;;;;3.80;3.50;;;;;;;;;;5076418;28;20467;-76
2022/09/11 06:55:23;;;;;;;4.23;3.93;;;;;;;;;;5059017;28;20421;-76
2022/09/11 06:57:55;;;;;;;3.10;2.80;;;;;;;;;;5054042;28;20465;-76
2022/09/11 07:00:25;;;;;;;2.70;2.50;;;;;;;;;;5053183;28;20453;-76
2022/09/11 07:02:52;;;;;;;2.87;2.67;;;;;;;;;;5076291;28;20530;-76
2022/09/11 07:05:24;;;;;;;3.03;2.73;;;;;;;;;;5076481;28;20488;-76
2022/09/11 07:07:52;;;;;;;3.00;2.80;;;;;;;;;;5093526;28;20428;-77
2022/09/11 07:10:18;;;;;;;3.10;2.90;;;;;;;;;;5076445;28;20447;-77
2022/09/11 07:12:54;;;;;;;3.73;3.10;;;;;;;;;;5077392;28;20894;-76
2022/09/11 07:15:21;;;;;;;2.80;2.60;;;;;;;;;;5094483;28;20404;-77
2022/09/11 07:17:47;;;;;;;3.30;2.97;;;;;;;;;;5076701;28;20423;-77
2022/09/11 07:20:14;;;;;;;3.00;2.80;;;;;;;;;;5093999;28;20455;-77
2022/09/11 07:22:44;;;;;;;2.83;2.63;;;;;;;;;;5074275;28;20516;-77
2022/09/11 07:25:13;;;;;;;1.97;1.87;;;;;;;;;;5073075;28;20460;-77
2022/09/11 07:27:40;;;;;;;2.60;2.50;;;;;;;;;;5073120;28;20478;-76
2022/09/11 07:30:09;;;;;;;2.73;2.53;;;;;;;;;;5074437;28;20453;-78
2022/09/11 07:32:37;;;;;;;2.80;2.60;;;;;;;;;;5089872;28;20518;-76
2022/09/11 07:35:04;;;;;;;1.93;1.83;;;;;;;;;;5073369;28;20470;-76
2022/09/11 07:37:30;;;;;;;2.57;2.40;;;;;;;;;;5080942;28;20432;-76
2022/09/11 07:39:57;;;;;;;1.90;1.80;;;;;;;;;;5052856;28;20501;-77
2022/09/11 07:42:27;;;;;;;2.10;1.90;;;;;;;;;;5052797;28;20443;-77
2022/09/11 07:44:55;;;;;;;2.30;2.20;;;;;;;;;;5066735;28;20436;-77
2022/09/11 07:47:22;;;;;;;4.60;2.57;;;;;;;;;;5073857;28;20531;-77
2022/09/11 07:49:50;;;;;;;1.97;1.80;;;;;;;;;;5074725;28;20437;-77
2022/09/11 07:52:19;;;;;;;2.47;2.30;;;;;;;;;;5072419;28;20976;-76
2022/09/11 07:54:52;;;;;;;2.67;2.47;;;;;;;;;;5072470;28;20490;-77
2022/09/11 07:57:23;;;;;;;2.57;2.37;;;;;;;;;;5071657;28;20932;-77
2022/09/11 07:59:50;;;;;;;3.13;2.83;;;;;;;;;;5069509;28;20430;-76
2022/09/11 08:02:18;;;;;;;3.13;2.93;;;;;;;;;;5048174;28;20940;-76
2022/09/11 08:04:45;;;;;;;3.43;3.20;;;;;;;;;;5060579;28;20548;-76
2022/09/11 08:07:12;;;;;;;3.37;3.07;;;;;;;;;;5085285;28;20854;-77
2022/09/11 08:09:43;;;;;;;3.77;3.47;;;;;;;;;;5087345;28;20452;-76
2022/09/11 08:12:10;;;;;;;3.20;3.00;;;;;;;;;;5071829;28;20830;-77
2022/09/11 08:14:38;;;;;;;4.20;3.90;;;;;;;;;;5081277;28;20524;-77
2022/09/11 08:17:19;;;;;;;3.73;3.47;;;;;;;;;;5073473;28;20455;-77
2022/09/11 08:19:47;;;;;;;4.30;3.90;;;;;;;;;;5064965;28;20453;-76
2022/09/11 08:22:15;;;;;;;3.80;3.40;;;;;;;;;;5072244;28;20448;-77
2022/09/11 08:24:43;;;;;;;3.50;3.20;;;;;;;;;;5063005;28;20443;-77
2022/09/11 08:27:13;;;;;;;3.53;3.23;;;;;;;;;;5090583;28;20447;-77
2022/09/11 08:29:41;;;;;;;3.33;3.00;;;;;;;;;;5082193;28;20446;-77
2022/09/11 08:32:08;;;;;;;4.57;3.70;;;;;;;;;;5056894;28;20440;-77
2022/09/11 08:34:37;;;;;;;3.53;3.23;;;;;;;;;;5075406;28;20968;-77
2022/09/11 08:37:04;;;;;;;2.93;2.73;;;;;;;;;;5057520;28;20439;-77
2022/09/11 08:39:33;;;;;;;3.50;3.20;;;;;;;;;;5060623;28;20421;-76
2022/09/11 08:42:04;;;;;;;2.40;1.97;;;;;;;;;;5075886;28;20510;-76
2022/09/11 08:44:35;;;;;;;3.30;2.97;;;;;;;;;;5084357;28;20425;-77
2022/09/11 08:47:17;;;;;;;2.83;2.63;;;;;;;;;;5075724;28;20455;-76
2022/09/11 08:49:51;;;;;;;4.03;2.70;;;;;;;;;;5055152;28;20494;-77
2022/09/11 08:52:19;;;;;;;3.20;2.90;;;;;;;;;;5055530;28;20552;-77
2022/09/11 08:54:46;;;;;;;3.27;2.53;;;;;;;;;;5071094;28;20435;-77
2022/09/11 08:57:17;;;;;;;2.53;2.30;;;;;;;;;;5087885;28;20435;-76
2022/09/11 09:00:05;;;;;;;3.50;3.20;;;;;;;;;;5072055;28;20479;-77
2022/09/11 09:02:39;;;;;;;3.37;3.17;;;;;;;;;;5065325;28;21048;-77
2022/09/11 09:05:17;;;;;;;4.30;2.87;;;;;;;;;;5071837;28;20856;-77
2022/09/11 09:08:03;;;;;;;3.73;3.30;;;;;;;;;;5054736;28;20452;-76
2022/09/11 09:10:42;;;;;;;3.37;3.17;;;;;;;;;;5071097;28;20457;-77
2022/09/11 09:13:14;;;;;;;3.47;3.17;;;;;;;;;;5071593;28;21073;-77
2022/09/11 09:15:47;;;;;;;4.03;3.73;;;;;;;;;;5070818;28;20478;-76
2022/09/11 09:18:22;;;;;;;3.20;2.77;;;;;;;;;;5070477;28;20439;-77
2022/09/11 09:20:56;;;;;;;3.93;3.63;;;;;;;;;;5087351;28;20451;-77
2022/09/11 09:23:24;;;;;;;3.40;3.20;;;;;;;;;;5072058;28;20436;-77
2022/09/11 09:25:56;;;;;;;3.40;3.10;;;;;;;;;;5072184;28;20456;-77
2022/09/11 09:28:25;;;;;;;3.60;3.30;;;;;;;;;;5073690;28;20540;-77
2022/09/11 09:30:58;;;;;;;4.23;3.93;;;;;;;;;;5050726;28;20905;-77
2022/09/11 09:33:34;;;;;;;5.03;4.63;;;;;;;;;;5050452;28;21019;-76
2022/09/11 09:36:15;;;;;;;5.47;3.73;;;;;;;;;;5050355;28;20520;-76
2022/09/11 09:38:43;;;;;;;3.80;3.50;;;;;;;;;;5050834;28;20525;-76
2022/09/11 09:41:10;;;;;;;4.07;3.67;;;;;;;;;;5050191;28;20488;-76
2022/09/11 09:43:55;;;;;;;4.03;3.73;;;;;;;;;;5071366;28;20819;-77
2022/09/11 09:46:36;;;;;;;5.53;4.30;;;;;;;;;;5087648;28;20519;-76
2022/09/11 09:49:03;;;;;;;3.53;3.23;;;;;;;;;;5071945;28;20508;-77
2022/09/11 09:51:30;;;;;;;4.30;4.00;;;;;;;;;;5057153;28;20495;-77
2022/09/11 09:53:59;;;;;;;3.80;3.60;;;;;;;;;;5071691;28;20429;-76
2022/09/11 09:56:26;;;;;;;3.27;3.03;;;;;;;;;;5068741;28;20425;-76
2022/09/11 09:58:57;;;;;;;4.43;3.90;;;;;;;;;;5062241;28;20432;-76
2022/09/11 10:01:45;;;;;;;5.57;3.30;;;;;;;;;;5072948;28;20526;-75
2022/09/11 10:04:13;;;;;;;4.70;4.17;;;;;;;;;;5063896;28;20413;-75
2022/09/11 10:06:40;;;;;;;6.03;3.73;;;;;;;;;;5071014;28;20413;-74
2022/09/11 10:09:36;;;;;;;4.37;3.97;;;;;;;;;;5071330;28;20960;-75
2022/09/11 10:12:11;;;;;;;3.90;3.60;;;;;;;;;;5066069;28;20490;-74
2022/09/11 10:14:42;;;;;;;4.13;3.83;;;;;;;;;;5057141;28;21024;-75
2022/09/11 10:17:18;;;;;;;4.20;3.90;;;;;;;;;;5090449;28;20811;-75
2022/09/11 10:19:45;;;;;;;4.00;3.60;;;;;;;;;;5074741;28;20466;-75
2022/09/11 10:22:23;;;;;;;4.23;3.90;;;;;;;;;;5074311;28;20425;-75
2022/09/11 10:24:59;;;;;;;4.60;3.97;;;;;;;;;;5057186;28;20553;-75
2022/09/11 10:27:27;;;;;;;3.30;3.10;;;;;;;;;;5073615;28;21006;-75
2022/09/11 10:29:54;;;;;;;2.87;2.67;;;;;;;;;;5074693;28;20416;-75
2022/09/11 10:32:23;;;;;;;3.13;2.90;;;;;;;;;;5083538;28;20835;-74
2022/09/11 10:34:50;;;;;;;4.13;3.73;;;;;;;;;;5055049;28;20433;-74
2022/09/11 10:37:17;;;;;;;3.50;3.20;;;;;;;;;;5076811;28;20442;-74
2022/09/11 10:39:45;;;;;;;3.80;2.90;;;;;;;;;;5078862;28;20416;-74
2022/09/11 10:42:15;;;;;;;3.17;2.97;;;;;;;;;;5053182;28;20964;-74
2022/09/11 10:44:46;;;;;;;4.60;3.27;;;;;;;;;;5070074;28;20428;-75
2022/09/11 10:47:14;;;;;;;3.97;3.67;;;;;;;;;;5093553;28;20446;-75
2022/09/11 10:49:41;;;;;;;5.63;3.10;;;;;;;;;;5078323;28;20433;-75
2022/09/11 10:52:07;;;;;;;3.57;3.27;;;;;;;;;;5089913;28;20973;-74
2022/09/11 10:54:37;;;;;;;4.83;3.63;;;;;;;;;;5073186;28;20949;-75
2022/09/11 10:57:13;;;;;;;3.43;3.13;;;;;;;;;;5083012;28;20436;-75
2022/09/11 10:59:44;;;;;;;4.13;3.93;;;;;;;;;;5073089;28;20428;-75
2022/09/11 11:02:27;;;;;;;4.17;3.77;;;;;;;;;;5074976;28;20433;-75
2022/09/11 11:04:59;;;;;;;4.20;3.30;;;;;;;;;;5064255;28;20466;-75
2022/09/11 11:07:36;;;;;;;3.00;2.80;;;;;;;;;;5074878;28;20520;-75
2022/09/11 11:10:24;;;;;;;3.73;3.53;;;;;;;;;;5080250;28;20452;-75
2022/09/11 11:13:13;;;;;;;3.70;3.23;;;;;;;;;;5090357;28;20481;-75
2022/09/11 11:15:58;;;;;;;2.90;2.70;;;;;;;;;;5060543;28;20488;-76
2022/09/11 11:18:32;;;;;;;3.70;3.50;;;;;;;;;;5059080;28;20915;-76
2022/09/11 11:21:22;;;;;;;2.57;2.37;;;;;;;;;;5060039;28;20461;-76
2022/09/11 11:24:00;;;;;;;3.07;2.80;;;;;;;;;;5074255;28;21014;-76
2022/09/11 11:26:30;;;;;;;3.20;3.00;;;;;;;;;;5083347;28;20455;-75
2022/09/11 11:29:15;;;;;;;4.63;4.23;;;;;;;;;;5095888;28;20463;-77
2022/09/11 11:31:48;;;;;;;5.63;4.33;;;;;;;;;;5082131;28;20448;-77
2022/09/11 11:34:33;;;;;;;4.83;4.43;;;;;;;;;;5081419;28;20463;-76
2022/09/11 11:37:03;;;;;;;5.00;4.50;;;;;;;;;;5077003;28;20882;-76
2022/09/11 11:39:32;;;;;;;5.30;4.80;;;;;;;;;;5072698;28;20535;-77
2022/09/11 11:42:06;;;;;;;4.97;4.30;;;;;;;;;;5069521;28;20841;-77
2022/09/11 11:44:38;;;;;;;5.63;5.03;;;;;;;;;;5052475;28;20465;-77
2022/09/11 11:47:05;;;;;;;6.10;5.50;;;;;;;;;;5059287;28;20441;-76
2022/09/11 11:49:32;;;;;;;4.17;3.87;;;;;;;;;;5075569;28;20434;-77
2022/09/11 11:52:18;;;;;;;5.40;4.90;;;;;;;;;;5080220;28;20982;-76
2022/09/11 11:54:48;;;;;;;5.40;5.00;;;;;;;;;;5094079;28;20412;-76
2022/09/11 11:57:18;;;;;;;5.87;5.37;;;;;;;;;;5075942;28;20821;-76
2022/09/11 11:59:45;;;;;;;5.03;4.63;;;;;;;;;;5057953;28;20432;-76
2022/09/11 12:02:12;;;;;;;4.63;4.07;;;;;;;;;;5073275;28;20441;-76
2022/09/11 12:04:48;;;;;;;4.60;4.30;;;;;;;;;;5071938;28;21058;-76
2022/09/11 12:07:21;;;;;;;4.37;3.97;;;;;;;;;;5072765;28;20478;-76
2022/09/11 12:09:48;;;;;;;6.23;4.23;;;;;;;;;;5072545;28;20435;-76
2022/09/11 12:12:15;;;;;;;4.77;4.33;;;;;;;;;;5071867;28;20433;-75
2022/09/11 12:15:08;;;;;;;4.30;4.00;;;;;;;;;;5062676;28;20516;-76
2022/09/11 12:17:37;;;;;;;5.77;5.00;;;;;;;;;;5077047;28;20981;-76
2022/09/11 12:20:09;;;;;;;5.00;4.00;;;;;;;;;;5093100;28;20554;-76
2022/09/11 12:22:38;;;;;;;3.87;3.57;;;;;;;;;;5085695;28;20443;-75
2022/09/11 12:25:26;;;;;;;4.93;4.63;;;;;;;;;;5071766;28;20785;-74
2022/09/11 12:28:08;;;;;;;5.53;3.83;;;;;;;;;;5071548;28;20444;-75
2022/09/11 12:30:55;;;;;;;3.67;3.37;;;;;;;;;;5078810;28;20804;-75
2022/09/11 12:33:40;;;;;;;4.60;4.13;;;;;;;;;;5075345;28;20484;-75
2022/09/11 12:36:29;;;;;;;4.13;3.73;;;;;;;;;;5071827;28;20419;-75
2022/09/11 12:39:01;;;;;;;5.00;4.50;;;;;;;;;;5073168;28;20937;-75
2022/09/11 12:41:32;;;;;;;4.90;4.60;;;;;;;;;;5072443;28;20543;-75
2022/09/11 12:44:00;;;;;;;4.27;3.97;;;;;;;;;;5072420;28;20824;-75
2022/09/11 12:46:27;;;;;;;5.67;5.17;;;;;;;;;;5072739;28;20539;-75
2022/09/11 12:48:56;;;;;;;4.97;4.57;;;;;;;;;;5054788;28;20431;-75
2022/09/11 12:51:49;;;;;;;5.53;4.93;;;;;;;;;;5088042;28;20470;-75
2022/09/11 12:54:16;;;;;;;4.13;3.83;;;;;;;;;;5086581;28;20554;-75
2022/09/11 12:56:48;;;;;;;4.60;4.20;;;;;;;;;;5091572;28;20511;-75
2022/09/11 12:59:45;;;;;;;4.60;4.30;;;;;;;;;;5074455;28;21002;-75
2022/09/11 13:02:24;;;;;;;4.07;3.77;;;;;;;;;;5070851;28;20447;-75
2022/09/11 13:04:52;;;;;;;4.87;4.47;;;;;;;;;;5042964;28;20531;-75
2022/09/11 13:07:31;;;;;;;4.00;3.70;;;;;;;;;;5072797;28;20440;-75
2022/09/11 13:10:00;;;;;;;3.50;3.20;;;;;;;;;;5054359;28;20528;-76
2022/09/11 13:12:27;;;;;;;3.30;3.10;;;;;;;;;;5072154;28;21225;-75
2022/09/11 13:14:56;;;;;;;4.23;3.60;;;;;;;;;;5054934;28;20440;-75
2022/09/11 13:17:29;;;;;;;3.90;3.60;;;;;;;;;;5084455;28;20429;-75
2022/09/11 13:20:12;;;;;;;3.90;3.70;;;;;;;;;;5087448;28;20982;-75
2022/09/11 13:22:38;;;;;;;4.30;4.00;;;;;;;;;;5072341;28;20499;-75
2022/09/11 13:25:09;;;;;;;4.17;3.87;;;;;;;;;;5072182;28;20424;-77
2022/09/11 13:27:37;;;;;;;4.63;4.23;;;;;;;;;;5056267;28;20935;-76
2022/09/11 13:30:05;;;;;;;4.30;4.00;;;;;;;;;;5072418;28;20444;-75
2022/09/11 13:32:32;;;;;;;4.93;4.27;;;;;;;;;;5062658;28;20973;-75
2022/09/11 13:35:01;;;;;;;4.60;4.30;;;;;;;;;;5061739;28;20944;-77
2022/09/11 13:37:33;;;;;;;5.00;4.60;;;;;;;;;;5084449;28;20448;-76
2022/09/11 13:40:01;;;;;;;5.17;4.77;;;;;;;;;;5089214;28;20987;-76
2022/09/11 13:42:29;;;;;;;5.07;4.70;;;;;;;;;;5078135;28;20871;-76
2022/09/11 13:44:56;;;;;;;4.63;4.33;;;;;;;;;;5071964;28;20436;-76
2022/09/11 13:47:24;;;;;;;5.27;4.80;;;;;;;;;;5085360;28;20507;-75
2022/09/11 13:49:54;;;;;;;6.63;6.00;;;;;;;;;;5058695;28;20430;-76
2022/09/11 13:52:21;;;;;;;6.83;6.23;;;;;;;;;;5082189;28;20526;-75
2022/09/11 13:54:49;;;;;;;8.13;6.70;;;;;;;;;;5088207;28;20835;-76
2022/09/11 13:57:21;;;;;;;6.63;6.13;;;;;;;;;;5064087;28;20441;-76
2022/09/11 13:59:48;;;;;;;5.40;5.00;;;;;;;;;;5079040;28;20423;-75
2022/09/11 14:02:21;;;;;;;5.23;4.83;;;;;;;;;;5083064;28;20817;-76
2022/09/11 14:04:51;;;;;;;4.97;4.47;;;;;;;;;;5074404;28;20539;-76
2022/09/11 14:07:19;;;;;;;5.30;4.90;;;;;;;;;;5064148;28;20934;-76
2022/09/11 14:09:47;;;;;;;6.00;5.50;;;;;;;;;;5067270;28;20884;-76
2022/09/11 14:12:14;;;;;;;9.00;5.90;;;;;;;;;;5083163;28;20442;-76
2022/09/11 14:14:45;;;;;;;5.93;5.37;;;;;;;;;;5081943;28;20451;-75
2022/09/11 14:17:13;;;;;;;7.00;6.30;;;;;;;;;;5062428;28;20432;-75
2022/09/11 14:19:41;;;;;;;6.53;5.93;;;;;;;;;;5074863;28;20436;-76
2022/09/11 14:22:27;;;;;;;5.50;5.10;;;;;;;;;;5080233;28;20526;-76
2022/09/11 14:25:11;;;;;;;5.73;5.33;;;;;;;;;;5083844;28;20486;-76
2022/09/11 14:27:40;;;;;;;6.23;5.73;;;;;;;;;;5072541;28;20957;-76
2022/09/11 14:30:27;;;;;;;6.50;5.90;;;;;;;;;;5082674;28;20548;-76
2022/09/11 14:33:12;;;;;;;6.37;5.87;;;;;;;;;;5068059;28;20433;-76
2022/09/11 14:35:39;;;;;;;5.23;4.93;;;;;;;;;;5078105;28;20444;-75
2022/09/11 14:38:08;;;;;;;5.80;5.40;;;;;;;;;;5087803;28;20430;-76
2022/09/11 14:40:35;;;;;;;5.70;5.10;;;;;;;;;;5076033;28;20548;-76
2022/09/11 14:43:03;;;;;;;5.53;5.13;;;;;;;;;;5065755;28;20436;-75
2022/09/11 14:45:30;;;;;;;5.60;5.10;;;;;;;;;;5091252;28;20438;-75
2022/09/11 14:47:58;;;;;;;4.70;4.30;;;;;;;;;;5063164;28;20456;-76
2022/09/11 14:50:25;;;;;;;5.30;4.90;;;;;;;;;;5086082;28;20444;-76
2022/09/11 14:52:52;;;;;;;4.87;4.47;;;;;;;;;;5074074;28;20532;-76
2022/09/11 14:55:18;;;;;;;5.80;5.40;;;;;;;;;;5052962;28;20444;-77
2022/09/11 14:57:45;;;;;;;4.83;4.53;;;;;;;;;;5068683;28;20458;-76
2022/09/11 15:00:13;;;;;;;6.63;5.47;;;;;;;;;;5089882;28;20484;-76
2022/09/11 15:02:39;;;;;;;6.20;5.70;;;;;;;;;;5056810;28;20455;-76
2022/09/11 15:05:13;;;;;;;6.10;5.60;;;;;;;;;;5063982;28;20437;-77
2022/09/11 15:07:40;;;;;;;6.00;5.60;;;;;;;;;;5060510;28;20424;-76